createdAt,value
2023-01-20T00:01:25.538Z,100.00
2023-01-20T00:03:54.216Z,100.00
2023-01-20T00:06:22.280Z,100.00
2023-01-20T00:08:53.133Z,100.00
2023-01-20T00:11:20.887Z,100.00
2023-01-20T00:13:48.018Z,100.00
2023-01-20T00:16:15.077Z,100.00
2023-01-20T00:18:41.799Z,100.00
2023-01-20T00:21:12.193Z,100.00
2023-01-20T00:23:40.854Z,100.00
2023-01-20T00:26:09.931Z,100.00
2023-01-20T00:28:37.201Z,100.00
2023-01-20T00:31:14.909Z,100.00
2023-01-20T00:33:42.382Z,100.00
2023-01-20T00:36:10.419Z,100.00
2023-01-20T00:38:37.335Z,100.00
2023-01-20T00:41:04.056Z,100.00
2023-01-20T00:43:30.767Z,100.00
2023-01-20T00:45:57.438Z,100.00
2023-01-20T00:48:24.070Z,100.00
2023-01-20T00:50:50.758Z,100.00
2023-01-20T00:53:17.950Z,100.00
2023-01-20T00:55:44.632Z,100.00
2023-01-20T00:58:11.208Z,100.00
2023-01-20T01:00:37.889Z,100.00
2023-01-20T01:03:05.665Z,100.00
2023-01-20T01:05:33.019Z,100.00
2023-01-20T01:07:59.734Z,100.00
2023-01-20T01:10:26.368Z,100.00
2023-01-20T01:12:52.969Z,100.00
2023-01-20T01:15:19.619Z,100.00
2023-01-20T01:17:46.339Z,100.00
2023-01-20T01:20:13.852Z,100.00
2023-01-20T01:22:40.765Z,100.00
2023-01-20T01:25:07.850Z,100.00
2023-01-20T01:27:34.503Z,100.00
2023-01-20T01:30:01.202Z,100.00
2023-01-20T01:32:28.398Z,100.00
2023-01-20T01:34:55.051Z,100.00
2023-01-20T01:37:21.631Z,100.00
2023-01-20T01:39:48.604Z,100.00
2023-01-20T01:42:18.223Z,100.00
2023-01-20T01:45:13.502Z,100.00
2023-01-20T01:47:46.397Z,100.00
2023-01-20T01:50:21.560Z,100.00
2023-01-20T01:52:52.715Z,100.00
2023-01-20T01:55:22.691Z,100.00
2023-01-20T01:57:51.636Z,100.00
2023-01-20T02:00:18.727Z,100.00
2023-01-20T02:02:45.679Z,100.00
2023-01-20T02:05:14.606Z,100.00
2023-01-20T02:07:45.331Z,100.00
2023-01-20T02:10:12.832Z,100.00
2023-01-20T02:12:40.973Z,100.00
2023-01-20T02:15:08.432Z,100.00
2023-01-20T02:17:53.951Z,100.00
2023-01-20T02:20:49.397Z,100.00
2023-01-20T02:23:34.368Z,100.00
2023-01-20T02:26:24.407Z,100.00
2023-01-20T02:29:09.358Z,100.00
2023-01-20T02:32:13.361Z,100.00
2023-01-20T02:34:42.739Z,100.00
2023-01-20T02:37:19.792Z,100.00
2023-01-20T02:39:46.299Z,100.00
2023-01-20T02:42:24.546Z,100.00
2023-01-20T02:45:04.303Z,100.00
2023-01-20T02:47:54.892Z,100.00
2023-01-20T02:50:29.388Z,100.00
2023-01-20T02:52:59.673Z,100.00
2023-01-20T02:55:34.884Z,100.00
2023-01-20T02:58:07.316Z,100.00
2023-01-20T03:00:51.931Z,100.00
2023-01-20T03:03:25.240Z,100.00
2023-01-20T03:05:59.390Z,100.00
2023-01-20T03:08:30.701Z,100.00
2023-01-20T03:11:07.543Z,100.00
2023-01-20T03:13:58.033Z,100.00
2023-01-20T03:16:27.893Z,100.00
2023-01-20T03:18:55.279Z,100.00
2023-01-20T03:21:22.354Z,100.00
2023-01-20T03:23:53.109Z,100.00
2023-01-20T03:26:22.622Z,100.00
2023-01-20T03:28:49.670Z,100.00
2023-01-20T03:31:22.013Z,100.00
2023-01-20T03:33:51.523Z,100.00
2023-01-20T03:36:19.768Z,100.00
2023-01-20T03:38:46.771Z,100.00
2023-01-20T03:41:35.100Z,100.00
2023-01-20T03:44:20.180Z,100.00
2023-01-20T03:46:59.111Z,100.00
2023-01-20T03:49:53.529Z,100.00
2023-01-20T03:52:47.869Z,100.00
2023-01-20T03:55:26.539Z,100.00
2023-01-20T03:58:04.644Z,100.00
2023-01-20T04:00:37.923Z,100.00
2023-01-20T04:03:19.682Z,100.00
2023-01-20T04:05:49.106Z,100.00
2023-01-20T04:08:17.997Z,100.00
2023-01-20T04:10:48.526Z,100.00
2023-01-20T04:13:15.902Z,100.00
2023-01-20T04:15:44.854Z,100.00
2023-01-20T04:18:22.752Z,100.00
2023-01-20T04:20:53.277Z,100.00
2023-01-20T04:23:25.163Z,100.00
2023-01-20T04:25:51.855Z,100.00
2023-01-20T04:28:18.743Z,100.00
2023-01-20T04:30:45.575Z,100.00
2023-01-20T04:33:12.358Z,100.00
2023-01-20T04:35:38.953Z,100.00
2023-01-20T04:38:06.595Z,100.00
2023-01-20T04:40:33.344Z,100.00
2023-01-20T04:43:00.048Z,100.00
2023-01-20T04:45:26.756Z,100.00
2023-01-20T04:47:53.403Z,100.00
2023-01-20T04:50:20.167Z,100.00
2023-01-20T04:52:46.921Z,100.00
2023-01-20T04:55:14.280Z,100.00
2023-01-20T04:57:41.198Z,100.00
2023-01-20T05:00:08.818Z,100.00
2023-01-20T05:02:35.540Z,100.00
2023-01-20T05:05:02.270Z,100.00
2023-01-20T05:07:29.190Z,100.00
2023-01-20T05:09:55.887Z,100.00
2023-01-20T05:12:23.022Z,100.00
2023-01-20T05:14:49.751Z,100.00
2023-01-20T05:17:16.371Z,100.00
2023-01-20T05:19:43.746Z,100.00
2023-01-20T05:22:10.523Z,100.00
2023-01-20T05:24:38.370Z,100.00
2023-01-20T05:27:04.944Z,100.00
2023-01-20T05:29:31.881Z,100.00
2023-01-20T05:31:58.815Z,100.00
2023-01-20T05:34:25.454Z,100.00
2023-01-20T05:36:55.039Z,100.00
2023-01-20T05:39:21.947Z,100.00
2023-01-20T05:41:48.877Z,100.00
2023-01-20T05:44:16.212Z,100.00
2023-01-20T05:46:42.972Z,100.00
2023-01-20T05:49:12.385Z,100.00
2023-01-20T05:51:38.945Z,100.00
2023-01-20T05:54:06.030Z,100.00
2023-01-20T05:56:32.669Z,100.00
2023-01-20T05:58:59.631Z,100.00
2023-01-20T06:01:26.817Z,100.00
2023-01-20T06:03:53.789Z,100.00
2023-01-20T06:06:21.062Z,100.00
2023-01-20T06:08:49.779Z,100.00
2023-01-20T06:11:17.917Z,100.00
2023-01-20T06:13:46.952Z,100.00
2023-01-20T06:16:13.806Z,100.00
2023-01-20T06:18:40.863Z,100.00
2023-01-20T06:21:07.494Z,100.00
2023-01-20T06:23:34.327Z,100.00
2023-01-20T06:26:06.621Z,100.00
2023-01-20T06:28:33.539Z,100.00
2023-01-20T06:31:11.946Z,100.00
2023-01-20T06:33:38.956Z,100.00
2023-01-20T06:36:07.014Z,100.00
2023-01-20T06:38:35.980Z,100.00
2023-01-20T06:41:05.699Z,100.00
2023-01-20T06:43:34.137Z,100.00
2023-01-20T06:46:06.410Z,100.00
2023-01-20T06:48:33.263Z,100.00
2023-01-20T06:51:05.756Z,100.00
2023-01-20T06:53:32.669Z,100.00
2023-01-20T06:56:00.342Z,100.00
2023-01-20T06:58:29.801Z,100.00
2023-01-20T07:00:57.909Z,100.00
2023-01-20T07:03:25.308Z,100.00
2023-01-20T07:06:03.082Z,100.00
2023-01-20T07:08:30.164Z,100.00
2023-01-20T07:10:57.254Z,100.00
2023-01-20T07:13:23.999Z,100.00
2023-01-20T07:15:51.077Z,100.00
2023-01-20T07:18:17.933Z,100.00
2023-01-20T07:20:44.499Z,100.00
2023-01-20T07:23:11.592Z,100.00
2023-01-20T07:25:39.697Z,100.00
2023-01-20T07:28:06.819Z,100.00
2023-01-20T07:30:33.478Z,100.00
2023-01-20T07:33:00.183Z,100.00
2023-01-20T07:35:26.951Z,100.00
2023-01-20T07:37:53.514Z,100.00
2023-01-20T07:40:20.855Z,100.00
2023-01-20T07:42:47.637Z,100.00
2023-01-20T07:45:14.720Z,100.00
2023-01-20T07:47:42.110Z,100.00
2023-01-20T07:50:09.365Z,100.00
2023-01-20T07:52:36.427Z,100.00
2023-01-20T07:55:03.084Z,100.00
2023-01-20T07:57:32.461Z,99.50
2023-01-20T07:59:59.059Z,99.31
2023-01-20T08:02:26.275Z,98.82
2023-01-20T08:04:53.015Z,97.76
2023-01-20T08:07:19.761Z,92.69
2023-01-20T08:09:48.335Z,92.68
2023-01-20T08:12:15.322Z,93.38
2023-01-20T08:14:42.682Z,92.06
2023-01-20T08:17:09.593Z,92.98
2023-01-20T08:19:36.634Z,91.30
2023-01-20T08:22:03.209Z,90.38
2023-01-20T08:24:30.045Z,89.18
2023-01-20T08:26:57.000Z,92.06
2023-01-20T08:29:23.576Z,89.43
2023-01-20T08:31:50.570Z,89.96
2023-01-20T08:34:18.772Z,88.37
2023-01-20T08:36:45.662Z,87.91
2023-01-20T08:39:14.579Z,88.01
2023-01-20T08:41:43.630Z,85.73
2023-01-20T08:44:11.780Z,86.02
2023-01-20T08:46:41.700Z,84.77
2023-01-20T08:49:14.542Z,85.65
2023-01-20T08:51:41.712Z,83.61
2023-01-20T08:54:08.621Z,83.50
2023-01-20T08:56:36.860Z,84.86
2023-01-20T08:59:03.993Z,80.89
2023-01-20T09:01:37.833Z,78.75
2023-01-20T09:04:07.316Z,81.46
2023-01-20T09:06:45.992Z,78.48
2023-01-20T09:09:15.886Z,78.03
2023-01-20T09:11:44.985Z,78.47
2023-01-20T09:14:12.055Z,76.23
2023-01-20T09:16:38.659Z,74.40
2023-01-20T09:19:05.411Z,73.32
2023-01-20T09:21:32.008Z,74.46
2023-01-20T09:23:58.584Z,71.79
2023-01-20T09:26:35.396Z,70.50
2023-01-20T09:29:09.769Z,70.49
2023-01-20T09:31:44.407Z,70.24
2023-01-20T09:34:19.527Z,71.86
2023-01-20T09:36:51.405Z,68.89
2023-01-20T09:39:36.590Z,69.21
2023-01-20T09:42:51.655Z,69.03
2023-01-20T09:45:36.743Z,67.63
2023-01-20T09:48:52.227Z,68.69
2023-01-20T09:51:53.055Z,69.09
2023-01-20T09:54:29.128Z,69.47
2023-01-20T09:57:00.708Z,68.18
2023-01-20T09:59:36.622Z,68.67
2023-01-20T10:02:12.615Z,70.07
2023-01-20T10:04:43.881Z,70.37
2023-01-20T10:07:10.872Z,67.24
2023-01-20T10:09:56.675Z,69.23
2023-01-20T10:12:40.714Z,70.41
2023-01-20T10:15:13.993Z,67.55
2023-01-20T10:17:51.272Z,66.51
2023-01-20T10:20:35.969Z,68.48
2023-01-20T10:23:16.878Z,67.15
2023-01-20T10:26:03.262Z,68.42
2023-01-20T10:28:35.162Z,67.10
2023-01-20T10:31:04.425Z,67.14
2023-01-20T10:33:44.178Z,67.26
2023-01-20T10:36:19.919Z,65.38
2023-01-20T10:39:05.993Z,64.38
2023-01-20T10:41:45.287Z,64.86
2023-01-20T10:44:13.709Z,66.53
2023-01-20T10:46:46.277Z,66.46
2023-01-20T10:49:22.574Z,64.26
2023-01-20T10:52:09.203Z,65.47
2023-01-20T10:54:54.142Z,66.67
2023-01-20T10:57:21.116Z,65.49
2023-01-20T10:59:55.984Z,63.06
2023-01-20T11:02:35.230Z,65.84
2023-01-20T11:05:19.167Z,66.38
2023-01-20T11:07:47.206Z,62.83
2023-01-20T11:10:21.843Z,64.79
2023-01-20T11:12:52.707Z,64.37
2023-01-20T11:15:23.895Z,63.55
2023-01-20T11:18:15.354Z,64.30
2023-01-20T11:20:50.354Z,64.31
2023-01-20T11:23:47.646Z,63.90
2023-01-20T11:26:28.051Z,64.12
2023-01-20T11:29:22.208Z,64.32
2023-01-20T11:31:54.328Z,65.44
2023-01-20T11:34:36.297Z,64.68
2023-01-20T11:37:06.485Z,64.83
2023-01-20T11:39:54.011Z,65.51
2023-01-20T11:42:24.846Z,64.19
2023-01-20T11:45:15.303Z,65.88
2023-01-20T11:47:45.323Z,64.72
2023-01-20T11:50:45.524Z,64.32
2023-01-20T11:53:22.041Z,65.18
2023-01-20T11:55:51.893Z,64.18
2023-01-20T11:58:26.303Z,64.66
2023-01-20T12:01:02.193Z,65.40
2023-01-20T12:03:41.402Z,64.21
2023-01-20T12:06:15.314Z,63.34
2023-01-20T12:08:58.551Z,64.48
2023-01-20T12:11:30.771Z,63.71
2023-01-20T12:14:23.348Z,64.68
2023-01-20T12:16:53.767Z,64.65
2023-01-20T12:19:26.779Z,64.86
2023-01-20T12:21:56.978Z,63.40
2023-01-20T12:24:51.411Z,63.43
2023-01-20T12:27:25.733Z,64.93
2023-01-20T12:29:56.171Z,63.34
2023-01-20T12:32:22.870Z,64.68
2023-01-20T12:34:49.826Z,63.22
2023-01-20T12:37:27.730Z,63.75
2023-01-20T12:39:54.272Z,66.00
2023-01-20T12:42:38.780Z,65.60
2023-01-20T12:45:51.130Z,64.71
2023-01-20T12:48:49.815Z,62.89
2023-01-20T12:51:35.710Z,64.39
2023-01-20T12:54:35.769Z,66.96
2023-01-20T12:57:29.904Z,63.96
2023-01-20T13:00:34.968Z,62.98
2023-01-20T13:03:24.903Z,62.93
2023-01-20T13:06:03.593Z,71.94
2023-01-20T13:08:50.339Z,64.40
2023-01-20T13:11:40.955Z,60.93
2023-01-20T13:14:15.229Z,62.82
2023-01-20T13:16:42.884Z,61.81
2023-01-20T13:19:17.491Z,63.36
2023-01-20T13:21:44.822Z,63.06
2023-01-20T13:24:29.199Z,63.28
2023-01-20T13:27:00.638Z,61.83
2023-01-20T13:29:37.550Z,62.77
2023-01-20T13:32:24.954Z,62.17
2023-01-20T13:34:51.749Z,62.11
2023-01-20T13:37:30.909Z,64.07
2023-01-20T13:40:00.632Z,63.43
2023-01-20T13:42:36.500Z,63.08
2023-01-20T13:45:12.372Z,61.55
2023-01-20T13:47:53.134Z,62.25
2023-01-20T13:50:24.585Z,64.66
2023-01-20T13:52:52.153Z,62.94
2023-01-20T13:55:49.251Z,64.97
2023-01-20T13:58:33.131Z,63.80
2023-01-20T14:01:03.575Z,61.89
2023-01-20T14:03:36.396Z,63.10
2023-01-20T14:06:12.531Z,63.75
2023-01-20T14:08:50.949Z,62.40
2023-01-20T14:11:21.950Z,61.64
2023-01-20T14:13:54.005Z,61.83
2023-01-20T14:16:27.447Z,62.83
2023-01-20T14:18:57.216Z,62.96
2023-01-20T14:21:26.111Z,62.63
2023-01-20T14:23:54.511Z,62.91
2023-01-20T14:26:25.193Z,62.70
2023-01-20T14:28:57.940Z,62.75
2023-01-20T14:31:45.525Z,61.20
2023-01-20T14:34:22.543Z,63.86
2023-01-20T14:36:49.519Z,63.69
2023-01-20T14:39:25.484Z,61.89
2023-01-20T14:41:55.401Z,62.91
2023-01-20T14:44:25.850Z,62.69
2023-01-20T14:46:55.594Z,62.39
2023-01-20T14:49:28.563Z,61.63
2023-01-20T14:51:55.717Z,63.79
2023-01-20T14:54:45.119Z,61.86
2023-01-20T14:57:27.528Z,62.42
2023-01-20T15:00:17.436Z,64.30
2023-01-20T15:03:04.985Z,62.30
2023-01-20T15:05:39.068Z,61.43
2023-01-20T15:08:11.721Z,61.50
2023-01-20T15:10:39.276Z,62.70
2023-01-20T15:13:23.401Z,63.25
2023-01-20T15:15:50.274Z,61.85
2023-01-20T15:18:22.405Z,62.18
2023-01-20T15:21:00.941Z,63.41
2023-01-20T15:23:42.172Z,63.49
2023-01-20T15:26:18.777Z,65.06
2023-01-20T15:28:45.806Z,66.04
2023-01-20T15:31:17.329Z,66.00
2023-01-20T15:33:44.718Z,65.15
2023-01-20T15:36:23.782Z,63.15
2023-01-20T15:38:51.099Z,66.74
2023-01-20T15:41:19.084Z,65.57
2023-01-20T15:43:46.133Z,66.58
2023-01-20T15:46:15.141Z,68.15
2023-01-20T15:48:42.531Z,67.68
2023-01-20T15:51:27.603Z,69.37
2023-01-20T15:53:54.546Z,69.70
2023-01-20T15:56:26.016Z,69.97
2023-01-20T15:58:53.961Z,71.08
2023-01-20T16:01:26.139Z,70.52
2023-01-20T16:03:56.763Z,70.01
2023-01-20T16:06:29.578Z,69.06
2023-01-20T16:08:56.992Z,71.66
2023-01-20T16:11:23.685Z,72.86
2023-01-20T16:13:50.372Z,72.92
2023-01-20T16:16:19.629Z,73.45
2023-01-20T16:18:47.235Z,75.23
2023-01-20T16:21:16.555Z,75.38
2023-01-20T16:23:44.238Z,76.49
2023-01-20T16:26:23.562Z,78.38
2023-01-20T16:28:52.993Z,78.20
2023-01-20T16:31:20.897Z,78.06
2023-01-20T16:33:48.171Z,79.54
2023-01-20T16:36:17.769Z,80.23
2023-01-20T16:38:45.464Z,81.12
2023-01-20T16:41:21.403Z,78.25
2023-01-20T16:43:49.455Z,78.22
2023-01-20T16:46:22.168Z,76.87
2023-01-20T16:48:49.123Z,76.16
2023-01-20T16:51:21.624Z,74.49
2023-01-20T16:53:48.998Z,72.48
2023-01-20T16:56:21.997Z,75.74
2023-01-20T16:58:51.647Z,76.60
2023-01-20T17:01:24.928Z,76.10
2023-01-20T17:03:55.439Z,76.39
2023-01-20T17:06:27.835Z,73.97
2023-01-20T17:09:01.698Z,75.58
2023-01-20T17:11:40.208Z,76.80
2023-01-20T17:14:09.605Z,79.71
2023-01-20T17:16:38.057Z,76.08
2023-01-20T17:19:05.531Z,78.00
2023-01-20T17:21:34.744Z,80.16
2023-01-20T17:24:04.545Z,81.36
2023-01-20T17:26:31.737Z,82.76
2023-01-20T17:29:04.273Z,82.80
2023-01-20T17:31:34.645Z,82.87
2023-01-20T17:34:01.588Z,83.09
2023-01-20T17:36:29.607Z,85.16
2023-01-20T17:38:57.748Z,86.89
2023-01-20T17:41:24.986Z,86.47
2023-01-20T17:43:51.751Z,85.06
2023-01-20T17:46:23.540Z,86.07
2023-01-20T17:48:51.050Z,87.94
2023-01-20T17:51:20.539Z,89.80
2023-01-20T17:53:48.501Z,92.90
2023-01-20T17:56:16.868Z,93.41
2023-01-20T17:58:46.037Z,91.78
2023-01-20T18:01:18.379Z,90.79
2023-01-20T18:03:45.927Z,91.16
2023-01-20T18:06:15.101Z,91.66
2023-01-20T18:08:42.697Z,92.90
2023-01-20T18:11:13.008Z,93.77
2023-01-20T18:13:40.321Z,93.99
2023-01-20T18:16:10.832Z,94.05
2023-01-20T18:18:43.208Z,92.72
2023-01-20T18:21:13.482Z,94.66
2023-01-20T18:23:41.103Z,96.80
2023-01-20T18:26:09.760Z,97.28
2023-01-20T18:28:36.899Z,95.68
2023-01-20T18:31:10.544Z,97.66
2023-01-20T18:33:44.703Z,96.34
2023-01-20T18:36:14.993Z,95.86
2023-01-20T18:38:45.080Z,96.15
2023-01-20T18:41:13.715Z,95.96
2023-01-20T18:43:41.434Z,96.15
2023-01-20T18:46:10.610Z,96.61
2023-01-20T18:48:39.339Z,97.46
2023-01-20T18:51:07.424Z,96.62
2023-01-20T18:53:34.823Z,96.56
2023-01-20T18:56:04.036Z,95.88
2023-01-20T18:58:30.710Z,98.08
2023-01-20T19:01:07.136Z,99.54
2023-01-20T19:03:36.250Z,100.00
2023-01-20T19:06:13.082Z,99.67
2023-01-20T19:08:41.031Z,98.40
2023-01-20T19:11:15.284Z,99.55
2023-01-20T19:13:43.606Z,100.00
2023-01-20T19:16:12.784Z,98.61
2023-01-20T19:18:41.193Z,99.29
2023-01-20T19:21:11.553Z,99.80
2023-01-20T19:23:39.232Z,100.00
2023-01-20T19:26:08.968Z,100.00
2023-01-20T19:28:36.344Z,100.00
2023-01-20T19:31:12.419Z,100.00
2023-01-20T19:33:40.654Z,100.00
2023-01-20T19:36:13.402Z,98.73
2023-01-20T19:38:40.693Z,96.71
2023-01-20T19:41:27.828Z,98.72
2023-01-20T19:43:57.610Z,98.21
2023-01-20T19:46:30.136Z,97.43
2023-01-20T19:48:58.122Z,98.19
2023-01-20T19:51:26.180Z,99.08
2023-01-20T19:53:57.764Z,100.00
2023-01-20T19:56:26.915Z,100.00
2023-01-20T19:58:54.822Z,99.64
2023-01-20T20:01:22.791Z,98.64
2023-01-20T20:03:52.102Z,98.43
2023-01-20T20:06:36.591Z,100.00
2023-01-20T20:09:10.354Z,98.73
2023-01-20T20:11:37.677Z,99.47
2023-01-20T20:14:06.807Z,98.37
2023-01-20T20:16:35.804Z,97.93
2023-01-20T20:19:04.517Z,98.60
2023-01-20T20:21:31.652Z,99.88
2023-01-20T20:24:01.633Z,100.00
2023-01-20T20:26:34.652Z,100.00
2023-01-20T20:29:02.499Z,100.00
2023-01-20T20:31:30.266Z,100.00
2023-01-20T20:34:01.909Z,100.00
2023-01-20T20:36:32.361Z,100.00
2023-01-20T20:39:01.571Z,100.00
2023-01-20T20:41:31.600Z,100.00
2023-01-20T20:44:00.472Z,100.00
2023-01-20T20:46:28.856Z,100.00
2023-01-20T20:49:01.336Z,100.00
2023-01-20T20:51:32.088Z,100.00
2023-01-20T20:54:01.855Z,100.00
2023-01-20T20:56:32.986Z,100.00
2023-01-20T20:59:03.190Z,100.00
2023-01-20T21:01:33.615Z,100.00
2023-01-20T21:04:01.454Z,100.00
2023-01-20T21:06:29.608Z,100.00
2023-01-20T21:08:56.760Z,100.00
2023-01-20T21:11:24.945Z,100.00
2023-01-20T21:13:52.604Z,100.00
2023-01-20T21:16:22.502Z,100.00
2023-01-20T21:18:55.229Z,100.00
2023-01-20T21:21:23.903Z,100.00
2023-01-20T21:23:53.008Z,100.00
2023-01-20T21:26:21.091Z,99.59
2023-01-20T21:28:49.600Z,97.30
2023-01-20T21:31:21.250Z,96.10
2023-01-20T21:33:53.750Z,97.19
2023-01-20T21:36:21.449Z,86.31
2023-01-20T21:38:48.560Z,87.52
2023-01-20T21:41:16.410Z,86.91
2023-01-20T21:44:04.171Z,87.77
2023-01-20T21:46:39.394Z,88.10
2023-01-20T21:49:26.746Z,87.97
2023-01-20T21:52:13.437Z,87.55
2023-01-20T21:54:41.206Z,85.73
2023-01-20T21:57:08.391Z,84.41
2023-01-20T21:59:35.676Z,81.63
2023-01-20T22:02:02.340Z,80.21
2023-01-20T22:04:29.612Z,78.66
2023-01-20T22:06:56.687Z,76.81
2023-01-20T22:09:23.770Z,77.35
2023-01-20T22:11:50.875Z,78.06
2023-01-20T22:14:17.743Z,76.48
2023-01-20T22:16:44.531Z,76.67
2023-01-20T22:19:14.228Z,77.16
2023-01-20T22:21:40.952Z,76.85
2023-01-20T22:24:07.841Z,74.26
2023-01-20T22:26:34.970Z,71.49
2023-01-20T22:29:01.611Z,70.49
2023-01-20T22:31:30.096Z,70.61
2023-01-20T22:33:58.478Z,69.11
2023-01-20T22:36:25.511Z,69.87
2023-01-20T22:38:53.146Z,69.99
2023-01-20T22:41:20.716Z,69.77
2023-01-20T22:43:48.292Z,70.55
2023-01-20T22:46:17.394Z,69.40
2023-01-20T22:48:45.037Z,68.87
2023-01-20T22:51:14.809Z,69.96
2023-01-20T22:53:42.171Z,69.39
2023-01-20T22:56:12.999Z,67.92
2023-01-20T22:58:40.413Z,67.30
2023-01-20T23:01:19.311Z,67.03
2023-01-20T23:03:46.932Z,66.57
2023-01-20T23:06:14.182Z,67.57
2023-01-20T23:08:41.852Z,68.10
2023-01-20T23:11:11.390Z,68.94
2023-01-20T23:13:38.906Z,68.82
2023-01-20T23:16:09.996Z,68.76
2023-01-20T23:18:36.846Z,68.97
2023-01-20T23:21:05.829Z,70.20
2023-01-20T23:23:33.405Z,68.85
2023-01-20T23:26:12.138Z,68.27
2023-01-20T23:28:38.943Z,68.96
2023-01-20T23:31:07.545Z,67.23
2023-01-20T23:33:34.980Z,67.26
2023-01-20T23:36:07.404Z,66.93
2023-01-20T23:38:34.880Z,67.36
2023-01-20T23:41:02.446Z,67.84
2023-01-20T23:43:30.636Z,67.83
2023-01-20T23:46:02.366Z,67.68
2023-01-20T23:48:29.491Z,67.55
2023-01-20T23:50:59.710Z,66.93
2023-01-20T23:53:28.034Z,67.02
2023-01-20T23:56:23.877Z,67.88
2023-01-20T23:58:51.361Z,68.18
